createdAt,value
2019-01-21T00:00:51.041Z,49.10
2019-01-21T00:03:18.459Z,46.67
2019-01-21T00:05:45.814Z,49.13
2019-01-21T00:08:13.201Z,48.17
2019-01-21T00:10:40.599Z,48.17
2019-01-21T00:13:07.968Z,48.83
2019-01-21T00:15:35.503Z,49.10
2019-01-21T00:18:03.144Z,45.47
2019-01-21T00:20:30.530Z,47.20
2019-01-21T00:23:17.392Z,45.77
2019-01-21T00:25:44.786Z,46.73
2019-01-21T00:28:12.248Z,46.10
2019-01-21T00:30:39.657Z,45.83
2019-01-21T00:33:07.120Z,45.43
2019-01-21T00:35:34.536Z,45.93
2019-01-21T00:38:01.950Z,44.57
2019-01-21T00:40:29.365Z,44.30
2019-01-21T00:42:56.738Z,44.17
2019-01-21T00:45:24.137Z,44.33
2019-01-21T00:47:51.564Z,43.40
2019-01-21T00:50:18.925Z,44.57
2019-01-21T00:52:46.312Z,46.70
2019-01-21T00:55:13.721Z,44.40
2019-01-21T00:57:41.593Z,45.97
2019-01-21T01:00:13.158Z,46.23
2019-01-21T01:02:40.621Z,47.83
2019-01-21T01:05:09.272Z,46.87
2019-01-21T01:07:37.076Z,45.40
2019-01-21T01:10:05.213Z,49.33
2019-01-21T01:12:32.590Z,47.20
2019-01-21T01:15:00.005Z,48.87
2019-01-21T01:17:27.352Z,47.60
2019-01-21T01:19:54.765Z,48.63
2019-01-21T01:22:22.198Z,43.80
2019-01-21T01:24:49.584Z,49.13
2019-01-21T01:27:16.949Z,45.47
2019-01-21T01:29:43.789Z,47.67
2019-01-21T01:32:10.598Z,45.87
2019-01-21T01:34:37.507Z,43.37
2019-01-21T01:37:04.573Z,46.00
2019-01-21T01:39:31.477Z,44.47
2019-01-21T01:41:58.279Z,46.67
2019-01-21T01:44:25.720Z,44.10
2019-01-21T01:46:52.623Z,44.30
2019-01-21T01:49:19.658Z,45.03
2019-01-21T01:51:46.723Z,44.13
2019-01-21T01:54:13.705Z,44.50
2019-01-21T01:56:40.706Z,43.53
2019-01-21T01:59:08.049Z,42.57
2019-01-21T02:01:34.853Z,44.63
2019-01-21T02:04:01.652Z,45.10
2019-01-21T02:06:28.729Z,44.53
2019-01-21T02:08:55.628Z,46.13
2019-01-21T02:11:22.546Z,46.43
2019-01-21T02:13:49.398Z,45.60
2019-01-21T02:16:16.313Z,43.43
2019-01-21T02:18:43.197Z,43.37
2019-01-21T02:21:10.229Z,44.03
2019-01-21T02:23:37.587Z,42.67
2019-01-21T02:26:15.857Z,44.80
2019-01-21T02:28:53.210Z,44.50
2019-01-21T02:32:07.281Z,40.87
2019-01-21T02:35:17.899Z,40.80
2019-01-21T02:38:22.949Z,42.47
2019-01-21T02:40:59.099Z,42.40
2019-01-21T02:43:44.411Z,40.47
2019-01-21T02:46:35.446Z,41.77
2019-01-21T02:50:02.483Z,39.83
2019-01-21T02:53:17.613Z,40.43
2019-01-21T02:56:41.150Z,40.90
2019-01-21T02:59:19.879Z,38.77
2019-01-21T03:02:22.689Z,40.50
2019-01-21T03:05:34.134Z,38.93
2019-01-21T03:08:46.339Z,42.30
2019-01-21T03:11:43.056Z,37.50
2019-01-21T03:14:52.255Z,39.73
2019-01-21T03:18:16.455Z,41.43
2019-01-21T03:21:27.583Z,39.33
2019-01-21T03:24:13.981Z,39.50
2019-01-21T03:27:04.896Z,38.10
2019-01-21T03:30:22.008Z,37.17
2019-01-21T03:33:26.567Z,35.83
2019-01-21T03:36:04.989Z,38.90
2019-01-21T03:39:14.302Z,36.03
2019-01-21T03:41:58.230Z,37.37
2019-01-21T03:45:11.271Z,38.40
2019-01-21T03:47:44.332Z,35.67
2019-01-21T03:50:49.435Z,35.50
2019-01-21T03:53:52.523Z,36.33
2019-01-21T03:56:29.742Z,36.27
2019-01-21T03:59:26.515Z,36.13
2019-01-21T04:02:19.526Z,33.57
2019-01-21T04:05:07.741Z,34.63
2019-01-21T04:07:50.566Z,34.03
2019-01-21T04:10:45.084Z,32.87
2019-01-21T04:13:46.594Z,31.97
2019-01-21T04:16:30.402Z,32.17
2019-01-21T04:19:15.276Z,29.93
2019-01-21T04:22:15.872Z,30.93
2019-01-21T04:25:07.422Z,29.63
2019-01-21T04:27:56.445Z,28.80
2019-01-21T04:31:23.607Z,29.30
2019-01-21T04:34:31.638Z,32.47
2019-01-21T04:37:35.814Z,28.33
2019-01-21T04:40:22.245Z,28.50
2019-01-21T04:43:27.078Z,27.70
2019-01-21T04:46:31.825Z,27.93
2019-01-21T04:49:19.420Z,30.20
2019-01-21T04:52:00.995Z,26.13
2019-01-21T04:55:05.038Z,27.00
2019-01-21T04:58:35.034Z,26.67
2019-01-21T05:01:45.366Z,24.93
2019-01-21T05:04:53.323Z,22.83
2019-01-21T05:07:59.014Z,23.07
2019-01-21T05:11:00.671Z,21.87
2019-01-21T05:14:02.270Z,21.40
2019-01-21T05:16:58.119Z,20.80
2019-01-21T05:19:51.792Z,19.53
2019-01-21T05:22:37.480Z,21.87
2019-01-21T05:25:51.798Z,21.83
2019-01-21T05:28:53.083Z,22.40
2019-01-21T05:32:11.191Z,19.67
2019-01-21T05:35:13.369Z,21.47
2019-01-21T05:38:34.269Z,18.93
2019-01-21T05:41:20.308Z,17.50
2019-01-21T05:44:20.997Z,17.60
2019-01-21T05:47:31.394Z,19.67
2019-01-21T05:50:43.552Z,17.57
2019-01-21T05:53:48.530Z,18.90
2019-01-21T05:56:54.761Z,17.43
2019-01-21T06:00:12.161Z,17.27
2019-01-21T06:03:20.336Z,18.47
2019-01-21T06:06:23.834Z,20.30
2019-01-21T06:09:20.610Z,19.37
2019-01-21T06:12:13.637Z,18.10
2019-01-21T06:15:19.889Z,19.63
2019-01-21T06:17:59.947Z,19.97
2019-01-21T06:21:10.613Z,19.33
2019-01-21T06:24:04.758Z,19.53
2019-01-21T06:27:04.787Z,17.77
2019-01-21T06:30:00.783Z,19.37
2019-01-21T06:33:09.623Z,19.17
2019-01-21T06:36:07.105Z,20.30
2019-01-21T06:39:06.040Z,19.50
2019-01-21T06:41:48.725Z,18.70
2019-01-21T06:45:06.619Z,17.20
2019-01-21T06:48:09.795Z,18.03
2019-01-21T06:51:01.849Z,15.83
2019-01-21T06:53:47.917Z,15.73
2019-01-21T06:56:38.471Z,15.53
2019-01-21T06:59:47.168Z,15.00
2019-01-21T07:02:52.689Z,15.33
2019-01-21T07:05:44.992Z,16.80
2019-01-21T07:08:28.325Z,16.63
2019-01-21T07:12:04.498Z,17.47
2019-01-21T07:15:11.187Z,20.20
2019-01-21T07:18:21.116Z,20.73
2019-01-21T07:21:16.249Z,21.20
2019-01-21T07:24:03.936Z,21.90
2019-01-21T07:27:03.577Z,22.73
2019-01-21T07:30:18.417Z,22.00
2019-01-21T07:33:20.052Z,19.40
2019-01-21T07:36:44.413Z,17.80
2019-01-21T07:39:34.290Z,15.67
2019-01-21T07:42:28.289Z,13.93
2019-01-21T07:45:08.597Z,11.67
2019-01-21T07:48:08.552Z,11.70
2019-01-21T07:51:06.670Z,10.87
2019-01-21T07:54:08.371Z,9.73
2019-01-21T07:57:19.275Z,10.10
2019-01-21T08:00:25.373Z,9.83
2019-01-21T08:03:29.560Z,9.87
2019-01-21T08:06:30.215Z,10.37
2019-01-21T08:09:20.314Z,10.73
2019-01-21T08:12:24.241Z,10.13
2019-01-21T08:15:17.049Z,10.43
2019-01-21T08:18:18.253Z,10.57
2019-01-21T08:21:17.588Z,12.67
2019-01-21T08:24:12.538Z,12.87
2019-01-21T08:27:16.096Z,14.93
2019-01-21T08:30:25.105Z,13.77
2019-01-21T08:33:17.394Z,15.03
2019-01-21T08:36:20.630Z,15.57
2019-01-21T08:39:19.956Z,14.63
2019-01-21T08:42:03.973Z,14.33
2019-01-21T08:44:58.851Z,12.20
2019-01-21T08:48:03.247Z,12.10
2019-01-21T08:51:07.816Z,12.37
2019-01-21T08:53:59.594Z,12.47
2019-01-21T08:56:56.976Z,13.50
2019-01-21T09:00:07.965Z,14.87
2019-01-21T09:03:14.516Z,15.70
2019-01-21T09:06:12.709Z,16.37
2019-01-21T09:09:07.307Z,16.53
2019-01-21T09:12:16.507Z,15.70
2019-01-21T09:15:04.973Z,17.20
2019-01-21T09:18:26.030Z,18.10
2019-01-21T09:21:37.285Z,17.30
2019-01-21T09:24:36.653Z,16.90
2019-01-21T09:27:38.974Z,15.33
2019-01-21T09:30:30.227Z,18.30
2019-01-21T09:33:25.690Z,18.43
2019-01-21T09:36:34.606Z,19.20
2019-01-21T09:39:42.674Z,19.67
2019-01-21T09:42:31.996Z,21.43
2019-01-21T09:45:08.004Z,22.07
2019-01-21T09:47:34.090Z,23.97
2019-01-21T09:50:01.517Z,24.73
2019-01-21T09:52:28.884Z,24.53
2019-01-21T09:54:57.090Z,21.87
2019-01-21T09:57:27.147Z,25.63
2019-01-21T09:59:57.484Z,24.63
2019-01-21T10:02:47.463Z,26.33
2019-01-21T10:05:16.054Z,24.87
2019-01-21T10:08:04.763Z,25.20
2019-01-21T10:11:09.751Z,26.77
2019-01-21T10:14:14.691Z,25.63
2019-01-21T10:17:35.854Z,25.50
2019-01-21T10:20:46.327Z,26.40
2019-01-21T10:23:46.441Z,25.30
2019-01-21T10:27:04.147Z,28.30
2019-01-21T10:30:03.367Z,27.87
2019-01-21T10:33:02.649Z,27.90
2019-01-21T10:36:09.074Z,29.60
2019-01-21T10:39:04.103Z,28.90
2019-01-21T10:42:14.649Z,29.47
2019-01-21T10:45:15.535Z,28.93
2019-01-21T10:48:06.987Z,30.50
2019-01-21T10:51:12.995Z,28.47
2019-01-21T10:54:02.281Z,28.73
2019-01-21T10:57:06.160Z,30.63
2019-01-21T11:00:09.842Z,29.93
2019-01-21T11:02:49.570Z,30.57
2019-01-21T11:05:58.517Z,29.90
2019-01-21T11:08:47.122Z,30.60
2019-01-21T11:11:36.733Z,31.70
2019-01-21T11:14:34.656Z,34.77
2019-01-21T11:17:26.734Z,34.33
2019-01-21T11:20:23.884Z,33.53
2019-01-21T11:23:02.781Z,34.73
2019-01-21T11:26:05.850Z,32.90
2019-01-21T11:29:12.051Z,32.30
2019-01-21T11:32:25.378Z,33.53
2019-01-21T11:35:12.821Z,30.43
2019-01-21T11:38:16.155Z,31.43
2019-01-21T11:41:19.518Z,31.50
2019-01-21T11:44:26.308Z,29.80
2019-01-21T11:47:38.647Z,32.53
2019-01-21T11:50:19.879Z,30.60
2019-01-21T11:53:18.512Z,31.47
2019-01-21T11:56:38.573Z,31.80
2019-01-21T11:59:44.798Z,29.27
2019-01-21T12:02:47.542Z,33.10
2019-01-21T12:05:29.786Z,32.43
2019-01-21T12:08:33.527Z,30.10
2019-01-21T12:11:34.785Z,31.13
2019-01-21T12:15:01.920Z,33.77
2019-01-21T12:18:04.228Z,31.63
2019-01-21T12:21:09.677Z,31.33
2019-01-21T12:23:45.550Z,33.90
2019-01-21T12:26:52.995Z,34.33
2019-01-21T12:29:45.044Z,36.43
2019-01-21T12:32:56.882Z,35.33
2019-01-21T12:35:34.412Z,37.00
2019-01-21T12:38:38.725Z,34.97
2019-01-21T12:41:36.283Z,35.33
2019-01-21T12:44:16.786Z,34.20
2019-01-21T12:46:48.783Z,35.37
2019-01-21T12:49:39.641Z,36.57
2019-01-21T12:52:30.698Z,36.43
2019-01-21T12:55:38.929Z,37.23
2019-01-21T12:58:25.281Z,36.43
2019-01-21T13:01:30.038Z,36.73
2019-01-21T13:04:54.169Z,38.33
2019-01-21T13:07:40.905Z,38.73
2019-01-21T13:10:45.260Z,36.73
2019-01-21T13:13:51.778Z,38.70
2019-01-21T13:16:59.590Z,37.13
2019-01-21T13:20:17.682Z,37.10
2019-01-21T13:23:25.866Z,36.53
2019-01-21T13:26:23.009Z,37.53
2019-01-21T13:29:10.877Z,38.40
2019-01-21T13:32:47.234Z,36.07
2019-01-21T13:35:48.599Z,38.43
2019-01-21T13:39:09.456Z,37.37
2019-01-21T13:42:19.678Z,40.37
2019-01-21T13:45:30.791Z,41.03
2019-01-21T13:48:49.202Z,41.20
2019-01-21T13:51:49.810Z,40.20
2019-01-21T13:55:14.159Z,42.73
2019-01-21T13:58:08.138Z,42.50
2019-01-21T14:00:59.409Z,42.67
2019-01-21T14:03:41.677Z,43.70
2019-01-21T14:06:35.378Z,43.47
2019-01-21T14:09:40.372Z,43.13
2019-01-21T14:12:55.021Z,42.43
2019-01-21T14:16:11.889Z,41.17
2019-01-21T14:19:19.361Z,40.70
2019-01-21T14:22:23.060Z,38.07
2019-01-21T14:25:14.298Z,38.27
2019-01-21T14:28:22.046Z,36.37
2019-01-21T14:31:36.391Z,34.80
2019-01-21T14:34:15.081Z,32.30
2019-01-21T14:37:05.918Z,30.77
2019-01-21T14:40:20.774Z,33.80
2019-01-21T14:43:32.523Z,31.07
2019-01-21T14:46:19.605Z,30.90
2019-01-21T14:49:31.618Z,28.53
2019-01-21T14:52:16.733Z,29.60
2019-01-21T14:55:20.579Z,26.23
2019-01-21T14:58:15.854Z,28.63
2019-01-21T15:00:54.715Z,27.60
2019-01-21T15:04:09.891Z,25.67
2019-01-21T15:07:17.785Z,23.83
2019-01-21T15:10:09.200Z,27.60
2019-01-21T15:13:20.297Z,28.40
2019-01-21T15:16:20.567Z,23.77
2019-01-21T15:19:02.680Z,27.73
2019-01-21T15:22:06.611Z,28.77
2019-01-21T15:24:57.146Z,29.87
2019-01-21T15:27:51.318Z,28.27
2019-01-21T15:31:08.466Z,32.53
2019-01-21T15:34:07.417Z,31.40
2019-01-21T15:37:08.563Z,32.97
2019-01-21T15:39:50.686Z,32.07
2019-01-21T15:42:51.706Z,34.53
2019-01-21T15:45:50.764Z,37.47
2019-01-21T15:48:48.950Z,39.43
2019-01-21T15:51:48.871Z,39.00
2019-01-21T15:54:39.381Z,40.93
2019-01-21T15:57:28.868Z,43.00
2019-01-21T16:00:26.660Z,41.50
2019-01-21T16:03:34.409Z,43.90
2019-01-21T16:06:35.223Z,38.67
2019-01-21T16:09:22.938Z,40.13
2019-01-21T16:12:33.631Z,43.40
2019-01-21T16:15:15.069Z,40.93
2019-01-21T16:18:06.110Z,40.27
2019-01-21T16:21:04.826Z,43.97
2019-01-21T16:23:49.769Z,41.40
2019-01-21T16:26:27.724Z,43.40
2019-01-21T16:29:17.222Z,44.77
2019-01-21T16:31:50.066Z,45.43
2019-01-21T16:34:42.101Z,45.93
2019-01-21T16:37:49.786Z,46.87
2019-01-21T16:40:57.179Z,45.30
2019-01-21T16:43:30.203Z,45.57
2019-01-21T16:45:57.230Z,47.13
2019-01-21T16:48:24.186Z,49.47
2019-01-21T16:50:51.974Z,46.43
2019-01-21T16:53:19.447Z,44.80
2019-01-21T16:55:46.594Z,48.83
2019-01-21T16:58:13.435Z,40.87
2019-01-21T17:00:40.333Z,44.60
2019-01-21T17:03:07.271Z,44.43
2019-01-21T17:05:34.180Z,43.67
2019-01-21T17:08:01.220Z,44.03
2019-01-21T17:10:28.253Z,48.97
2019-01-21T17:12:55.256Z,50.70
2019-01-21T17:15:22.096Z,45.80
2019-01-21T17:17:49.038Z,47.13
2019-01-21T17:20:18.081Z,43.67
2019-01-21T17:22:45.880Z,44.47
2019-01-21T17:25:13.018Z,44.50
2019-01-21T17:27:40.030Z,44.50
2019-01-21T17:30:09.149Z,45.07
2019-01-21T17:32:35.974Z,46.43
2019-01-21T17:35:03.521Z,44.07
2019-01-21T17:37:30.354Z,45.73
2019-01-21T17:39:57.302Z,47.43
2019-01-21T17:42:24.098Z,43.80
2019-01-21T17:44:51.010Z,46.47
2019-01-21T17:47:18.149Z,45.57
2019-01-21T17:49:44.937Z,48.67
2019-01-21T17:52:12.137Z,44.57
2019-01-21T17:54:38.985Z,44.43
2019-01-21T17:57:05.903Z,47.50
2019-01-21T17:59:32.728Z,47.20
2019-01-21T18:01:59.735Z,48.17
2019-01-21T18:04:26.629Z,47.63
2019-01-21T18:06:53.530Z,49.17
2019-01-21T18:09:40.078Z,49.77
2019-01-21T18:12:06.902Z,44.17
2019-01-21T18:14:34.159Z,45.37
2019-01-21T18:17:01.102Z,46.97
2019-01-21T18:19:29.395Z,46.53
2019-01-21T18:21:56.309Z,48.13
2019-01-21T18:24:23.147Z,50.77
2019-01-21T18:26:50.278Z,50.83
2019-01-21T18:29:17.170Z,52.60
2019-01-21T18:31:44.131Z,56.37
2019-01-21T18:34:11.006Z,52.07
2019-01-21T18:36:38.015Z,51.93
2019-01-21T18:39:10.142Z,48.40
2019-01-21T18:41:37.074Z,48.47
2019-01-21T18:44:04.109Z,47.43
2019-01-21T18:46:30.932Z,46.80
2019-01-21T18:48:57.838Z,42.30
2019-01-21T18:51:24.767Z,42.03
2019-01-21T18:53:51.832Z,44.17
2019-01-21T18:56:18.807Z,40.43
2019-01-21T18:58:45.609Z,44.00
2019-01-21T19:01:12.562Z,49.60
2019-01-21T19:03:39.482Z,51.63
2019-01-21T19:06:06.600Z,51.07
2019-01-21T19:08:33.430Z,43.67
2019-01-21T19:11:00.222Z,47.77
2019-01-21T19:13:27.032Z,47.27
2019-01-21T19:15:53.974Z,46.23
2019-01-21T19:18:20.781Z,52.07
2019-01-21T19:20:47.591Z,58.10
2019-01-21T19:23:14.470Z,50.67
2019-01-21T19:25:41.461Z,47.47
2019-01-21T19:28:08.368Z,44.47
2019-01-21T19:30:35.398Z,53.40
2019-01-21T19:33:02.197Z,51.93
2019-01-21T19:35:34.494Z,45.60
2019-01-21T19:38:01.552Z,50.17
2019-01-21T19:40:28.677Z,40.20
2019-01-21T19:43:08.679Z,39.23
2019-01-21T19:45:35.486Z,34.83
2019-01-21T19:48:02.481Z,34.90
2019-01-21T19:50:29.404Z,37.17
2019-01-21T19:52:56.341Z,32.90
2019-01-21T19:55:29.549Z,30.83
2019-01-21T19:57:56.531Z,31.83
2019-01-21T20:00:24.029Z,29.47
2019-01-21T20:02:51.061Z,30.20
2019-01-21T20:05:18.561Z,29.83
2019-01-21T20:07:45.480Z,32.57
2019-01-21T20:10:15.538Z,31.57
2019-01-21T20:12:42.481Z,28.67
2019-01-21T20:15:10.683Z,29.10
2019-01-21T20:17:37.685Z,31.50
2019-01-21T20:20:07.105Z,35.57
2019-01-21T20:22:33.918Z,32.87
2019-01-21T20:25:00.825Z,31.43
2019-01-21T20:27:27.675Z,32.30
2019-01-21T20:29:54.586Z,29.13
2019-01-21T20:32:21.521Z,31.97
2019-01-21T20:34:48.369Z,31.83
2019-01-21T20:37:15.282Z,29.93
2019-01-21T20:39:42.192Z,28.97
2019-01-21T20:42:09.130Z,33.17
2019-01-21T20:44:37.930Z,28.33
2019-01-21T20:47:04.831Z,27.80
2019-01-21T20:49:31.746Z,27.57
2019-01-21T20:51:58.561Z,29.83
2019-01-21T20:54:25.363Z,27.60
2019-01-21T20:56:52.506Z,28.43
2019-01-21T20:59:19.403Z,29.57
2019-01-21T21:01:46.212Z,28.77
2019-01-21T21:04:13.378Z,31.07
2019-01-21T21:06:40.772Z,31.90
2019-01-21T21:09:08.494Z,30.03
2019-01-21T21:11:35.930Z,31.97
2019-01-21T21:14:03.485Z,29.70
2019-01-21T21:16:32.554Z,29.53
2019-01-21T21:18:59.975Z,28.43
2019-01-21T21:21:27.245Z,31.83
2019-01-21T21:23:54.533Z,27.87
2019-01-21T21:26:21.910Z,29.97
2019-01-21T21:28:49.318Z,30.13
2019-01-21T21:31:16.564Z,29.30
2019-01-21T21:33:43.882Z,28.00
2019-01-21T21:36:11.103Z,27.73
2019-01-21T21:38:38.429Z,27.53
2019-01-21T21:41:05.698Z,28.13
2019-01-21T21:43:32.797Z,27.47
2019-01-21T21:46:00.098Z,27.00
2019-01-21T21:48:31.688Z,25.87
2019-01-21T21:50:56.214Z,25.93
2019-01-21T21:53:23.396Z,25.80
2019-01-21T21:55:50.930Z,26.53
2019-01-21T21:58:18.251Z,25.17
2019-01-21T22:00:45.560Z,23.00
2019-01-21T22:03:12.812Z,21.40
2019-01-21T22:05:40.134Z,18.87
2019-01-21T22:08:07.434Z,17.07
2019-01-21T22:10:35.058Z,16.80
2019-01-21T22:13:03.063Z,14.50
2019-01-21T22:15:30.374Z,12.90
2019-01-21T22:17:57.706Z,12.67
2019-01-21T22:20:25.025Z,9.47
2019-01-21T22:22:52.324Z,10.10
2019-01-21T22:25:20.281Z,10.53
2019-01-21T22:27:47.601Z,11.43
2019-01-21T22:30:19.604Z,10.17
2019-01-21T22:32:46.593Z,9.83
2019-01-21T22:35:13.615Z,10.30
2019-01-21T22:37:40.638Z,11.10
2019-01-21T22:40:10.430Z,13.13
2019-01-21T22:42:37.325Z,13.37
2019-01-21T22:45:05.286Z,15.53
2019-01-21T22:47:32.225Z,12.90
2019-01-21T22:49:59.169Z,12.27
2019-01-21T22:52:26.289Z,14.23
2019-01-21T22:54:53.162Z,12.90
2019-01-21T22:57:19.977Z,13.40
2019-01-21T22:59:46.886Z,12.47
2019-01-21T23:02:13.829Z,10.03
2019-01-21T23:04:40.837Z,8.40
2019-01-21T23:07:07.865Z,8.90
2019-01-21T23:09:34.862Z,7.20
2019-01-21T23:12:01.982Z,8.47
2019-01-21T23:14:29.190Z,8.47
2019-01-21T23:16:56.230Z,8.53
2019-01-21T23:19:23.127Z,8.83
2019-01-21T23:21:50.044Z,10.30
2019-01-21T23:24:17.211Z,8.17
2019-01-21T23:26:44.114Z,10.07
2019-01-21T23:29:11.010Z,8.70
2019-01-21T23:31:38.038Z,9.40
2019-01-21T23:34:05.051Z,10.40
2019-01-21T23:36:32.050Z,11.07
2019-01-21T23:38:59.380Z,11.17
2019-01-21T23:41:26.174Z,11.30
2019-01-21T23:43:53.321Z,11.40
2019-01-21T23:46:20.187Z,10.63
2019-01-21T23:48:48.026Z,8.13
2019-01-21T23:51:15.169Z,7.73
2019-01-21T23:53:42.238Z,8.67
2019-01-21T23:56:09.251Z,8.03
2019-01-21T23:58:36.082Z,8.63
